Time;durP1;ratioP1;P1;durP2;ratioP2;P2;SDS_P1;SDS_P2;PMS_P1;PMS_P2;Temp;Humidity;BMP_temperature;BMP_pressure;BME280_temperature;BME280_humidity;BME280_pressure;Samples;Min_cycle;Max_cycle;Signal;HPM_P1;HPM_P2
2023/08/27 07:37:45;;;;;;;1.85;1.58;;;;;;;29.91;49.49;99202.09;4310216;32;33615;-89
2023/08/27 07:40:15;;;;;;;1.55;1.45;;;;;;;30.29;49.57;99199.66;4300555;33;33928;-89
2023/08/27 07:42:43;;;;;;;3.03;2.08;;;;;;;30.13;49.29;99195.47;4323654;32;32887;-89
2023/08/27 07:45:12;;;;;;;1.90;1.55;;;;;;;29.92;50.44;99184.75;4320289;32;32713;-89
2023/08/27 07:47:40;;;;;;;0.82;0.82;;;;;;;30.24;49.50;99186.69;4318237;32;33875;-88
2023/08/27 07:50:09;;;;;;;1.30;1.20;;;;;;;30.44;49.10;99185.84;4313855;32;32702;-89
2023/08/27 07:52:37;;;;;;;1.37;1.02;;;;;;;30.74;48.15;99176.19;4297714;32;33881;-88
2023/08/27 07:55:06;;;;;;;1.58;1.48;;;;;;;30.96;48.87;99174.06;4253067;33;32273;-89
2023/08/27 07:57:36;;;;;;;2.72;1.80;;;;;;;31.01;49.50;99173.41;4255475;33;32395;-89
2023/08/27 08:00:18;;;;;;;2.53;1.60;;;;;;;31.17;48.44;99175.66;4206526;33;35210;-88
2023/08/27 08:02:52;;;;;;;1.37;1.27;;;;;;;32.00;46.82;99161.19;4490260;31;304762;-87
2023/08/27 08:05:21;;;;;;;1.45;1.30;;;;;;;32.00;46.82;99161.19;4405807;32;34103;-88
2023/08/27 08:07:49;;;;;;;1.83;1.70;;;;;;;31.45;48.71;99171.81;4302770;32;32345;-87
2023/08/27 08:11:02;;;;;;;0.75;0.73;;;;;;;31.74;47.37;99171.22;4496613;31;135385;-87
2023/08/27 08:13:40;;;;;;;1.48;1.37;;;;;;;31.71;45.88;99179.84;4419426;32;31717;-88
2023/08/27 08:16:08;;;;;;;0.75;0.60;;;;;;;31.89;45.49;99168.22;4315321;32;33352;-88
2023/08/27 08:18:36;;;;;;;1.75;1.65;;;;;;;31.90;45.83;99169.87;4198207;33;32581;-88
2023/08/27 08:21:21;;;;;;;1.05;0.95;;;;;;;32.15;44.44;99172.66;4126229;33;33630;-88
2023/08/27 08:23:54;;;;;;;1.15;1.12;;;;;;;32.22;44.14;99167.12;4471553;31;144289;-88
2023/08/27 08:28:06;;;;;;;3.58;1.55;;;;;;;33.06;42.63;99158.38;4413692;32;111305;-88
2023/08/27 08:30:32;;;;;;;1.45;1.35;;;;;;;33.06;42.63;99158.38;4271416;33;33442;-88
2023/08/27 08:33:06;;;;;;;1.02;1.02;;;;;;;33.43;42.14;99147.41;4436134;31;104878;-88
2023/08/27 08:35:35;;;;;;;1.55;0.95;;;;;;;33.43;42.14;99147.41;4302272;32;33200;-88
2023/08/27 08:38:03;;;;;;;3.33;2.40;;;;;;;33.17;42.75;99153.19;4304961;32;34508;-88
2023/08/27 08:40:38;;;;;;;0.85;0.80;;;;;;;32.95;40.66;99150.94;4315265;33;33525;-88
2023/08/27 08:43:08;;;;;;;1.58;1.12;;;;;;;33.06;41.19;99152.06;4263035;33;33363;-88
2023/08/27 08:46:04;;;;;;;0.85;0.85;;;;;;;33.20;40.22;99142.63;4277376;33;32214;-88
2023/08/27 08:48:40;;;;;;;2.72;1.67;;;;;;;33.21;41.07;99149.75;4268986;33;32975;-88
2023/08/27 08:51:10;;;;;;;3.50;1.80;;;;;;;33.52;40.32;99156.13;4236353;33;33599;-89
2023/08/27 08:53:43;;;;;;;3.05;1.35;;;;;;;33.14;39.91;99157.25;4282656;32;33827;-88
2023/08/27 08:56:14;;;;;;;1.15;1.15;;;;;;;33.10;39.19;99153.28;4330221;32;32794;-88
2023/08/27 08:58:52;;;;;;;2.90;1.92;;;;;;;33.25;39.43;99156.44;4307369;33;33281;-88
2023/08/27 09:01:20;;;;;;;1.95;1.75;;;;;;;33.68;39.53;99150.00;4261190;33;33963;-89
2023/08/27 09:03:49;;;;;;;9.35;1.52;;;;;;;33.61;39.79;99149.25;4317998;32;33143;-89
2023/08/27 09:06:20;;;;;;;1.37;1.05;;;;;;;33.32;40.19;99148.97;4307010;33;32110;-89
2023/08/27 09:08:50;;;;;;;1.10;1.00;;;;;;;33.40;40.16;99156.03;4273516;33;34879;-89
2023/08/27 09:11:19;;;;;;;1.08;1.05;;;;;;;33.64;38.64;99143.31;4343920;32;32943;-89
2023/08/27 09:13:47;;;;;;;1.62;1.42;;;;;;;34.10;39.72;99141.81;4296662;33;33076;-89
2023/08/27 09:16:15;;;;;;;3.20;1.90;;;;;;;34.02;39.75;99140.25;4320655;33;33033;-88
2023/08/27 09:18:43;;;;;;;1.73;1.62;;;;;;;33.91;39.25;99132.81;4330663;33;33994;-89
2023/08/27 09:21:11;;;;;;;2.58;1.70;;;;;;;34.23;39.15;99138.00;4360746;32;33973;-90
2023/08/27 09:23:39;;;;;;;1.83;1.67;;;;;;;34.35;38.38;99134.22;4307046;33;32411;-89
2023/08/27 09:26:08;;;;;;;2.37;1.35;;;;;;;34.21;39.08;99130.03;4291519;33;33415;-88
2023/08/27 09:28:36;;;;;;;1.52;1.40;;;;;;;34.86;39.46;99127.19;4283424;33;33140;-88
2023/08/27 09:31:04;;;;;;;1.75;1.45;;;;;;;34.84;38.01;99114.75;4290233;32;33732;-88
2023/08/27 09:33:40;;;;;;;1.92;1.67;;;;;;;34.62;37.40;99122.81;4284673;33;32848;-88
2023/08/27 09:36:09;;;;;;;1.30;1.20;;;;;;;34.77;37.26;99125.88;4196157;34;32049;-89
2023/08/27 09:38:39;;;;;;;3.42;1.87;;;;;;;34.36;37.16;99108.47;4255739;33;33784;-88
2023/08/27 09:41:15;;;;;;;3.42;2.47;;;;;;;34.42;38.46;99116.81;4296984;33;32285;-89
2023/08/27 09:43:54;;;;;;;1.23;1.12;;;;;;;34.81;38.18;99107.03;4278079;33;34563;-88
2023/08/27 09:46:23;;;;;;;1.70;1.60;;;;;;;35.14;37.58;99115.44;4273959;33;32348;-89
2023/08/27 09:48:58;;;;;;;1.40;1.30;;;;;;;34.53;35.93;99110.53;4284477;33;33742;-89
2023/08/27 09:51:29;;;;;;;2.10;1.73;;;;;;;34.72;36.34;99112.06;4284497;33;34224;-89
2023/08/27 09:53:57;;;;;;;1.80;1.50;;;;;;;34.91;37.02;99118.22;4255012;33;31650;-89
2023/08/27 09:56:26;;;;;;;1.70;1.48;;;;;;;35.21;36.98;99114.47;4311581;33;33756;-89
2023/08/27 09:58:55;;;;;;;7.75;2.17;;;;;;;34.79;36.31;99107.25;4322311;32;32510;-89
2023/08/27 10:01:23;;;;;;;2.35;2.20;;;;;;;35.30;37.71;99111.09;4315387;32;34375;-88
2023/08/27 10:03:51;;;;;;;1.92;1.77;;;;;;;35.31;37.22;99120.97;4352787;32;33645;-89
2023/08/27 10:06:19;;;;;;;1.95;1.85;;;;;;;35.04;36.48;99114.38;4304841;33;33747;-89
2023/08/27 10:08:53;;;;;;;2.58;1.77;;;;;;;35.63;35.95;99112.28;4313409;32;34088;-89
2023/08/27 10:11:22;;;;;;;9.13;2.35;;;;;;;35.90;36.42;99113.31;4285663;33;33322;-89
2023/08/27 10:13:51;;;;;;;1.35;1.12;;;;;;;35.89;37.34;99117.16;4336641;32;32449;-89
2023/08/27 10:16:19;;;;;;;1.87;0.90;;;;;;;35.52;36.91;99115.94;4310197;32;32623;-89
2023/08/27 10:18:48;;;;;;;1.73;1.62;;;;;;;35.36;37.34;99112.84;4284013;33;31875;-89
2023/08/27 10:21:16;;;;;;;1.37;1.33;;;;;;;35.61;36.73;99108.97;4303007;32;33184;-89
2023/08/27 10:23:44;;;;;;;2.45;2.05;;;;;;;35.69;36.10;99105.78;4243179;33;32572;-89
2023/08/27 10:26:14;;;;;;;2.15;1.95;;;;;;;35.93;35.79;99095.50;4309587;33;33089;-89
2023/08/27 10:28:44;;;;;;;1.98;1.87;;;;;;;35.82;36.00;99093.66;4303966;33;34523;-89
2023/08/27 10:31:13;;;;;;;2.20;2.00;;;;;;;35.41;35.89;99082.75;4313594;32;33152;-88
2023/08/27 10:33:41;;;;;;;3.00;2.10;;;;;;;36.15;34.42;99087.37;4281446;33;32713;-89
2023/08/27 10:36:13;;;;;;;1.95;1.85;;;;;;;36.20;35.89;99092.94;4299354;33;32433;-89
2023/08/27 10:38:41;;;;;;;2.08;1.98;;;;;;;36.08;34.50;99087.56;4288810;33;35811;-89
2023/08/27 10:41:09;;;;;;;4.07;2.75;;;;;;;36.16;34.20;99080.78;4269178;33;35906;-89
2023/08/27 10:43:36;;;;;;;1.08;1.02;;;;;;;36.18;33.64;99078.63;4311180;32;33415;-89
2023/08/27 10:46:15;;;;;;;1.58;1.48;;;;;;;36.29;34.60;99072.19;4335787;32;34184;-89
2023/08/27 10:48:50;;;;;;;1.98;1.30;;;;;;;36.35;33.58;99073.09;4289061;33;32599;-88
2023/08/27 10:51:27;;;;;;;2.45;1.85;;;;;;;36.89;33.51;99063.16;4244553;33;32417;-88
2023/08/27 10:53:57;;;;;;;1.60;1.45;;;;;;;36.98;33.04;99062.72;4276832;33;32610;-89
2023/08/27 10:56:38;;;;;;;1.62;1.52;;;;;;;36.55;33.14;99059.66;4292696;33;32890;-88
2023/08/27 10:59:10;;;;;;;3.08;2.72;;;;;;;36.96;32.75;99057.47;4251304;33;34081;-88
2023/08/27 11:01:59;;;;;;;1.87;1.70;;;;;;;36.84;33.14;99057.59;4230681;33;34002;-88
2023/08/27 11:04:42;;;;;;;1.33;1.23;;;;;;;36.76;33.06;99060.78;4206205;33;33411;-88
2023/08/27 11:07:15;;;;;;;1.60;1.35;;;;;;;37.00;32.03;99053.12;4229562;33;34868;-89
2023/08/27 11:09:49;;;;;;;2.62;1.52;;;;;;;37.22;32.10;99050.31;4262879;33;33902;-89
2023/08/27 11:12:25;;;;;;;2.00;1.90;;;;;;;37.14;31.78;99048.87;4298342;33;33500;-88
2023/08/27 11:14:53;;;;;;;2.03;1.92;;;;;;;37.44;31.83;99044.81;4287825;33;33697;-90
2023/08/27 11:17:23;;;;;;;1.55;1.45;;;;;;;37.33;30.87;99054.03;4281861;33;33250;-90
2023/08/27 11:19:51;;;;;;;1.75;1.17;;;;;;;37.36;31.94;99053.50;4308822;32;34123;-89
2023/08/27 11:22:21;;;;;;;4.18;1.75;;;;;;;37.26;31.34;99048.72;4271810;33;33431;-90
2023/08/27 11:24:52;;;;;;;1.52;1.42;;;;;;;37.58;30.39;99047.97;4304919;33;32422;-90
2023/08/27 11:27:21;;;;;;;2.55;2.35;;;;;;;37.70;30.27;99051.38;4289206;33;31887;-89
2023/08/27 11:29:55;;;;;;;3.60;2.03;;;;;;;37.79;29.97;99047.03;4286595;33;32535;-90
2023/08/27 11:32:23;;;;;;;3.47;2.40;;;;;;;37.64;30.45;99049.66;4262399;33;33262;-90
2023/08/27 11:34:52;;;;;;;1.83;1.73;;;;;;;37.88;29.51;99045.47;4288020;33;33485;-90
2023/08/27 11:37:29;;;;;;;1.95;1.75;;;;;;;37.77;29.44;99046.47;4281268;33;32458;-89
2023/08/27 11:39:57;;;;;;;1.95;1.30;;;;;;;38.03;29.53;99044.78;4261975;33;34506;-90
2023/08/27 11:42:25;;;;;;;2.42;2.22;;;;;;;38.09;29.35;99051.16;4248881;33;33464;-90
2023/08/27 11:44:55;;;;;;;3.10;1.73;;;;;;;37.98;29.97;99041.16;4265399;33;33834;-89
2023/08/27 11:47:23;;;;;;;7.22;2.78;;;;;;;38.20;29.73;99036.34;4297520;32;32564;-89
2023/08/27 11:49:56;;;;;;;1.40;1.30;;;;;;;38.65;29.66;99029.47;4271197;33;34534;-89
2023/08/27 11:52:24;;;;;;;2.12;1.55;;;;;;;38.53;29.72;99028.84;4288781;33;33645;-90
2023/08/27 11:54:52;;;;;;;4.35;2.55;;;;;;;37.89;29.35;99030.63;4301991;32;32980;-89
2023/08/27 11:57:20;;;;;;;1.08;1.00;;;;;;;37.77;29.43;99029.94;4307750;33;32737;-91
2023/08/27 11:59:48;;;;;;;2.53;2.33;;;;;;;38.73;29.24;99019.81;4307573;33;34277;-90
2023/08/27 12:02:16;;;;;;;1.73;1.62;;;;;;;38.29;30.14;99029.25;4296755;33;34044;-90
2023/08/27 12:04:45;;;;;;;3.72;2.83;;;;;;;38.24;29.92;99020.94;4286073;33;33839;-90
2023/08/27 12:07:26;;;;;;;5.15;2.15;;;;;;;38.24;29.26;99026.44;4300338;33;32302;-90
2023/08/27 12:09:54;;;;;;;3.17;1.98;;;;;;;38.61;29.87;99014.53;4302414;33;32824;-90
2023/08/27 12:12:25;;;;;;;3.37;2.90;;;;;;;38.96;29.13;99015.78;4303279;33;33666;-90
2023/08/27 12:14:53;;;;;;;3.57;3.27;;;;;;;38.99;28.85;99016.09;4296232;33;33565;-90
2023/08/27 12:17:21;;;;;;;2.78;2.55;;;;;;;38.93;27.25;99014.38;4291971;33;33052;-90
2023/08/27 12:19:48;;;;;;;1.98;1.87;;;;;;;38.80;28.37;99015.75;4300991;33;33609;-90
2023/08/27 12:22:17;;;;;;;4.07;2.30;;;;;;;38.70;27.86;99012.94;4254234;33;32989;-90
2023/08/27 12:24:45;;;;;;;2.28;2.05;;;;;;;38.99;28.73;99012.50;4298785;32;32656;-90
2023/08/27 12:27:17;;;;;;;9.38;2.62;;;;;;;39.19;28.98;99015.28;4269459;33;30843;-90
2023/08/27 12:29:46;;;;;;;2.47;1.65;;;;;;;39.13;27.78;99008.94;4294246;33;34190;-90
2023/08/27 12:32:18;;;;;;;2.80;2.05;;;;;;;39.61;27.49;98995.75;4311086;32;33988;-90
2023/08/27 12:34:48;;;;;;;2.15;1.90;;;;;;;39.35;27.68;98986.63;4282855;33;33676;-90
2023/08/27 12:37:18;;;;;;;3.65;1.95;;;;;;;39.25;26.77;98992.12;4308819;32;32873;-90
2023/08/27 12:39:46;;;;;;;2.30;2.08;;;;;;;39.04;26.94;98996.78;4345209;32;33489;-90
2023/08/27 12:42:15;;;;;;;2.12;1.92;;;;;;;38.92;26.79;98997.00;4298922;33;35867;-90
2023/08/27 12:44:44;;;;;;;1.75;1.65;;;;;;;39.07;25.57;98990.69;4284324;32;33483;-91
2023/08/27 12:47:17;;;;;;;2.25;1.95;;;;;;;39.05;26.59;98987.37;4274820;33;33151;-90
2023/08/27 12:49:45;;;;;;;2.30;2.08;;;;;;;39.31;25.65;98985.53;4302594;33;32330;-89
2023/08/27 12:52:13;;;;;;;2.62;2.42;;;;;;;39.42;24.73;98976.12;4325887;32;33926;-89
2023/08/27 12:54:42;;;;;;;3.42;2.20;;;;;;;39.47;24.41;98980.00;4294234;33;33285;-90
2023/08/27 12:57:11;;;;;;;3.42;2.12;;;;;;;39.88;24.41;98969.78;4282217;33;34169;-90
2023/08/27 12:59:38;;;;;;;2.45;2.25;;;;;;;39.43;25.31;98988.84;4288734;33;33599;-90
2023/08/27 13:02:07;;;;;;;1.77;1.62;;;;;;;39.60;25.82;98982.22;4292018;33;34304;-90
2023/08/27 13:04:35;;;;;;;4.40;2.70;;;;;;;40.16;24.00;98968.34;4251565;33;33487;-90
2023/08/27 13:07:03;;;;;;;4.43;2.10;;;;;;;39.57;22.34;98968.97;4295945;33;33266;-90
2023/08/27 13:09:31;;;;;;;2.53;2.15;;;;;;;39.74;22.41;98977.84;4312155;33;33504;-89
2023/08/27 13:11:59;;;;;;;3.17;1.87;;;;;;;39.79;22.63;98975.06;4284482;33;33618;-90
2023/08/27 13:14:28;;;;;;;2.22;2.03;;;;;;;39.64;20.98;98966.75;4306284;33;33646;-90
2023/08/27 13:16:57;;;;;;;3.47;2.10;;;;;;;39.65;21.39;98963.75;4285722;33;32919;-91
2023/08/27 13:19:24;;;;;;;1.67;1.58;;;;;;;39.75;21.43;98967.59;4259756;33;33408;-90
2023/08/27 13:21:52;;;;;;;2.50;2.30;;;;;;;39.89;21.40;98955.69;4276533;33;34157;-90
2023/08/27 13:24:20;;;;;;;9.45;2.25;;;;;;;39.76;21.37;98959.03;4266606;33;33322;-91
2023/08/27 13:26:48;;;;;;;1.92;1.83;;;;;;;39.87;21.75;98949.59;4223049;33;33254;-90
2023/08/27 13:29:16;;;;;;;2.80;2.58;;;;;;;40.00;21.47;98942.66;4259330;33;33331;-90
2023/08/27 13:31:45;;;;;;;3.28;3.00;;;;;;;39.55;22.89;98947.16;4297091;33;33757;-90
2023/08/27 13:34:13;;;;;;;2.72;2.25;;;;;;;39.96;22.40;98943.50;4236770;33;35852;-89
2023/08/27 13:36:41;;;;;;;1.98;1.83;;;;;;;39.54;22.00;98950.16;4337222;32;33406;-90
2023/08/27 13:39:09;;;;;;;2.20;2.00;;;;;;;39.84;21.91;98944.66;4334252;32;32657;-90
2023/08/27 13:41:37;;;;;;;2.12;1.52;;;;;;;40.03;22.23;98941.28;4329554;32;34087;-91
2023/08/27 13:44:05;;;;;;;1.65;1.55;;;;;;;39.99;21.47;98932.72;4314783;32;34458;-90
2023/08/27 13:46:33;;;;;;;2.95;2.33;;;;;;;39.65;22.21;98935.28;4314406;33;34147;-90
2023/08/27 13:49:01;;;;;;;2.35;2.15;;;;;;;39.68;22.74;98940.22;4281000;33;34005;-90
2023/08/27 13:51:29;;;;;;;2.15;1.95;;;;;;;39.72;22.41;98924.75;4297226;32;33805;-90
2023/08/27 13:53:57;;;;;;;2.40;1.33;;;;;;;39.73;22.47;98920.88;4329442;32;33469;-91
2023/08/27 13:56:25;;;;;;;2.15;1.35;;;;;;;40.02;22.17;98917.50;4330375;32;33274;-91
2023/08/27 13:59:18;;;;;;;3.33;2.42;;;;;;;39.80;23.34;98924.19;4506953;31;273644;-90
2023/08/27 14:01:48;;;;;;;2.15;1.95;;;;;;;39.56;22.71;98921.16;4502370;31;33802;-90
2023/08/27 14:04:16;;;;;;;2.37;2.15;;;;;;;39.76;22.58;98922.28;4481199;31;32573;-89
2023/08/27 14:06:46;;;;;;;6.05;3.08;;;;;;;40.00;21.90;98923.31;4497655;31;33649;-90
2023/08/27 14:09:14;;;;;;;2.87;2.28;;;;;;;39.77;21.75;98921.97;4483659;31;32885;-90
2023/08/27 14:11:44;;;;;;;2.62;2.40;;;;;;;39.80;22.17;98918.66;4475680;31;32978;-90
2023/08/27 14:14:13;;;;;;;3.75;1.83;;;;;;;39.54;22.52;98917.84;4490343;31;32413;-89
2023/08/27 14:16:44;;;;;;;3.33;1.52;;;;;;;39.61;22.88;98917.56;4489482;31;31786;-89
2023/08/27 14:19:12;;;;;;;2.50;2.30;;;;;;;39.86;23.35;98913.94;4489745;31;33554;-89
2023/08/27 14:21:40;;;;;;;2.35;2.15;;;;;;;39.98;24.56;98910.87;4475805;31;32447;-89
2023/08/27 14:24:09;;;;;;;3.42;2.35;;;;;;;40.09;22.75;98909.78;4497570;31;34529;-89
2023/08/27 14:26:38;;;;;;;5.30;2.15;;;;;;;40.00;23.74;98908.66;4502124;31;32198;-89
2023/08/27 14:29:05;;;;;;;2.25;2.05;;;;;;;39.46;22.87;98903.78;4486288;31;34252;-89
2023/08/27 14:31:35;;;;;;;2.87;1.95;;;;;;;39.30;23.42;98911.22;4501551;31;33190;-89
2023/08/27 14:34:07;;;;;;;11.43;2.58;;;;;;;39.12;23.45;98898.75;4474118;31;32565;-89
2023/08/27 14:36:36;;;;;;;1.73;1.62;;;;;;;39.04;23.79;98891.06;4490621;31;33630;-89
2023/08/27 14:39:03;;;;;;;3.65;2.10;;;;;;;38.83;23.93;98901.22;4512854;31;31610;-89
2023/08/27 14:41:31;;;;;;;2.58;2.25;;;;;;;38.75;23.76;98897.09;4489071;31;32578;-88
2023/08/27 14:43:59;;;;;;;1.70;1.52;;;;;;;38.67;23.76;98900.34;4487053;31;33020;-89
2023/08/27 14:46:27;;;;;;;3.08;1.80;;;;;;;38.77;24.69;98902.31;4475600;31;32707;-89
2023/08/27 14:48:54;;;;;;;3.37;1.70;;;;;;;38.73;24.27;98892.91;4488652;31;33442;-89
2023/08/27 14:51:22;;;;;;;2.70;2.50;;;;;;;38.80;24.84;98899.03;4489813;31;33411;-89
2023/08/27 14:53:50;;;;;;;1.95;1.75;;;;;;;38.71;24.47;98897.88;4491650;31;36123;-89
2023/08/27 14:56:18;;;;;;;2.90;2.05;;;;;;;38.51;23.68;98898.66;4486874;31;34659;-88
2023/08/27 14:58:51;;;;;;;2.60;2.00;;;;;;;39.06;24.41;98894.34;4485141;31;33291;-89
2023/08/27 15:01:18;;;;;;;1.60;1.48;;;;;;;38.77;24.73;98903.16;4472927;31;32844;-89
2023/08/27 15:03:47;;;;;;;4.87;2.55;;;;;;;38.75;25.06;98899.84;4395470;32;33347;-89
2023/08/27 15:06:21;;;;;;;3.65;2.20;;;;;;;38.54;23.91;98892.59;4459111;31;260659;-89
2023/08/27 15:08:50;;;;;;;3.15;1.65;;;;;;;38.57;24.09;98894.81;4311820;32;33570;-89
2023/08/27 15:11:32;;;;;;;1.52;1.42;;;;;;;38.39;23.99;98896.94;4112106;33;33594;-89
2023/08/27 15:14:09;;;;;;;1.77;1.33;;;;;;;39.21;24.71;98886.09;4357740;31;102988;-88
2023/08/27 15:19:20;;;;;;;2.67;1.87;;;;;;;38.85;24.79;98883.31;4435908;31;118414;-89
2023/08/27 15:21:49;;;;;;;3.58;1.98;;;;;;;38.85;24.79;98883.31;4248147;32;34161;-89
2023/08/27 15:24:15;;;;;;;1.90;1.77;;;;;;;37.90;25.21;98891.75;4108534;33;32347;-89
2023/08/27 15:26:48;;;;;;;2.15;1.98;;;;;;;38.56;24.75;98880.19;4402521;31;108528;-89
2023/08/27 15:29:17;;;;;;;3.70;2.30;;;;;;;38.56;24.75;98880.19;4287889;32;33117;-89
2023/08/27 15:31:51;;;;;;;2.20;1.25;;;;;;;37.90;23.83;98891.75;4108428;33;32672;-89
2023/08/27 15:34:25;;;;;;;2.50;2.10;;;;;;;38.41;24.22;98892.00;4401559;31;97643;-89
2023/08/27 15:36:58;;;;;;;1.83;1.73;;;;;;;38.05;23.91;98890.19;4451416;31;107280;-90
2023/08/27 15:39:27;;;;;;;2.25;2.10;;;;;;;37.82;24.28;98892.22;4411341;32;33284;-89
2023/08/27 15:41:55;;;;;;;10.00;3.03;;;;;;;37.94;24.30;98891.22;4366800;32;33398;-89
2023/08/27 15:44:29;;;;;;;3.08;2.55;;;;;;;37.61;24.62;98885.78;4273181;32;34036;-90
2023/08/27 15:47:03;;;;;;;2.85;2.08;;;;;;;38.48;23.44;98885.41;4410398;31;167106;-89
2023/08/27 15:49:36;;;;;;;1.95;1.85;;;;;;;38.37;23.68;98893.66;4420414;31;136969;-89
2023/08/27 15:52:05;;;;;;;3.55;1.70;;;;;;;38.37;23.68;98893.66;4314901;32;33656;-89
2023/08/27 15:54:34;;;;;;;1.83;1.73;;;;;;;37.50;24.47;98886.78;4306088;32;34037;-90
2023/08/27 15:57:02;;;;;;;2.03;1.80;;;;;;;37.59;24.18;98887.13;4292112;32;32952;-89
2023/08/27 15:59:39;;;;;;;2.92;2.37;;;;;;;38.09;25.17;98883.03;4438303;31;124965;-89
2023/08/27 16:02:08;;;;;;;2.03;1.48;;;;;;;38.09;25.17;98883.03;4296169;32;33257;-88
2023/08/27 16:05:42;;;;;;;19.80;2.03;;;;;;;37.97;26.14;98886.00;4436907;31;226966;-89
2023/08/27 16:08:10;;;;;;;4.43;2.28;;;;;;;37.97;26.14;98886.00;4286380;32;34099;-89
2023/08/27 16:10:38;;;;;;;3.83;1.80;;;;;;;37.33;28.23;98881.41;4204912;33;33800;-90
2023/08/27 16:13:12;;;;;;;3.70;1.95;;;;;;;37.64;27.39;98873.37;4384946;31;1084974;-90
2023/08/27 16:15:40;;;;;;;11.18;2.28;;;;;;;37.64;27.39;98873.37;4318782;32;32098;-89
2023/08/27 16:18:08;;;;;;;2.35;1.75;;;;;;;36.94;27.17;98879.97;4348673;32;34602;-89
2023/08/27 16:20:36;;;;;;;2.87;1.87;;;;;;;36.74;29.20;98878.66;4380254;32;33068;-89
2023/08/27 16:23:04;;;;;;;2.00;1.83;;;;;;;36.49;29.92;98872.91;4369153;32;32623;-89
2023/08/27 16:25:32;;;;;;;3.03;2.83;;;;;;;36.43;30.48;98871.19;4381006;32;33178;-90
2023/08/27 16:28:00;;;;;;;6.15;2.50;;;;;;;36.26;31.18;98877.53;4363237;32;32779;-90
2023/08/27 16:30:29;;;;;;;2.42;2.25;;;;;;;36.16;31.54;98870.00;4351389;32;34429;-89
2023/08/27 16:32:57;;;;;;;2.65;2.08;;;;;;;35.99;32.31;98873.91;4337209;32;32493;-90
2023/08/27 16:35:25;;;;;;;4.50;2.75;;;;;;;35.84;33.20;98875.31;4387997;32;33396;-90
2023/08/27 16:37:53;;;;;;;5.15;2.80;;;;;;;35.73;33.60;98876.28;4384668;32;34547;-90
2023/08/27 16:40:21;;;;;;;2.70;2.50;;;;;;;35.57;34.45;98872.50;4372000;32;33302;-88
2023/08/27 16:42:49;;;;;;;2.20;1.90;;;;;;;35.27;35.85;98869.22;4387459;32;33119;-89
2023/08/27 16:45:17;;;;;;;3.05;2.78;;;;;;;35.19;35.91;98870.50;4365965;32;32711;-90
2023/08/27 16:47:45;;;;;;;3.30;2.30;;;;;;;35.20;35.85;98868.59;4378587;32;35339;-90
2023/08/27 16:50:13;;;;;;;1.90;1.77;;;;;;;35.02;36.55;98869.66;4365451;32;34037;-90
2023/08/27 16:52:41;;;;;;;3.67;2.12;;;;;;;34.88;36.90;98864.44;4384560;32;34098;-90
2023/08/27 16:55:08;;;;;;;2.97;2.42;;;;;;;34.80;37.28;98884.06;4359773;32;32205;-89
2023/08/27 16:57:36;;;;;;;3.30;2.28;;;;;;;34.73;37.75;98877.06;4373107;32;32633;-90
2023/08/27 17:00:06;;;;;;;2.85;2.55;;;;;;;34.52;38.28;98873.13;4400693;32;34383;-89
2023/08/27 17:02:36;;;;;;;2.15;2.03;;;;;;;34.43;39.08;98880.03;4348747;32;32839;-89
2023/08/27 17:05:04;;;;;;;1.77;1.67;;;;;;;34.18;40.17;98874.84;4374280;32;31963;-90
2023/08/27 17:07:32;;;;;;;2.40;1.98;;;;;;;34.13;40.03;98873.69;4377486;32;33082;-89
2023/08/27 17:10:00;;;;;;;2.37;2.08;;;;;;;34.11;39.96;98869.53;4388026;32;33049;-90
2023/08/27 17:12:28;;;;;;;3.55;1.73;;;;;;;34.02;40.19;98876.47;4355779;32;34723;-89
2023/08/27 17:14:56;;;;;;;2.70;2.37;;;;;;;33.98;39.90;98872.53;4373742;32;33139;-88
2023/08/27 17:17:24;;;;;;;2.33;2.03;;;;;;;33.76;39.69;98872.31;4347979;32;33836;-89
2023/08/27 17:19:52;;;;;;;2.10;1.92;;;;;;;33.76;39.10;98875.88;4370340;32;33546;-90
2023/08/27 17:22:21;;;;;;;3.47;2.87;;;;;;;33.65;39.17;98884.91;4365296;32;32700;-89
2023/08/27 17:24:49;;;;;;;1.90;1.80;;;;;;;33.54;38.87;98881.13;4355981;32;34126;-90
2023/08/27 17:27:16;;;;;;;2.65;1.98;;;;;;;33.50;38.79;98876.38;4383464;32;33152;-90
2023/08/27 17:29:44;;;;;;;2.70;1.40;;;;;;;33.40;39.40;98879.66;4344296;32;34978;-89
2023/08/27 17:32:12;;;;;;;3.42;2.33;;;;;;;33.36;39.47;98876.56;4322564;33;34911;-88
2023/08/27 17:34:40;;;;;;;3.65;2.47;;;;;;;33.23;39.73;98879.53;4314246;33;32372;-87
2023/08/27 17:37:08;;;;;;;7.22;2.05;;;;;;;33.06;40.17;98894.97;4295387;33;33923;-87
2023/08/27 17:39:36;;;;;;;2.83;2.53;;;;;;;32.97;40.76;98894.47;4301127;33;33027;-88
2023/08/27 17:42:09;;;;;;;2.35;1.85;;;;;;;32.88;40.85;98902.13;4303423;33;34163;-88
2023/08/27 17:44:37;;;;;;;3.08;2.70;;;;;;;32.71;41.40;98906.62;4348649;32;33407;-89
2023/08/27 17:47:06;;;;;;;1.70;1.58;;;;;;;32.54;41.95;98902.84;4363212;32;33898;-88
2023/08/27 17:49:34;;;;;;;3.50;2.37;;;;;;;32.47;42.17;98896.63;4347978;33;32803;-88
2023/08/27 17:52:02;;;;;;;4.85;2.78;;;;;;;32.38;42.62;98907.06;4356448;32;32693;-88
2023/08/27 17:54:29;;;;;;;2.65;2.22;;;;;;;32.30;42.54;98910.06;4336168;33;33312;-88
2023/08/27 17:56:59;;;;;;;2.05;1.95;;;;;;;32.11;42.36;98914.72;4340470;32;34351;-87
2023/08/27 17:59:27;;;;;;;1.67;1.37;;;;;;;32.01;42.53;98917.16;4346791;32;32994;-87
2023/08/27 18:01:57;;;;;;;4.00;2.42;;;;;;;31.96;43.33;98917.81;4333707;32;33134;-87
2023/08/27 18:04:25;;;;;;;2.30;2.08;;;;;;;31.96;43.64;98919.72;4285324;33;31858;-88
2023/08/27 18:06:53;;;;;;;2.55;2.22;;;;;;;31.93;43.41;98922.91;4309399;33;33621;-87
2023/08/27 18:09:20;;;;;;;7.82;2.00;;;;;;;31.75;44.01;98926.41;4280301;33;33446;-87
2023/08/27 18:15:04;;;;;;;4.28;2.97;;;;;;;31.71;44.11;98942.37;4294932;33;32618;-87
2023/08/27 18:17:33;;;;;;;4.75;3.42;;;;;;;31.52;44.59;98943.41;4323127;33;33745;-88
2023/08/27 18:20:00;;;;;;;2.47;2.15;;;;;;;31.20;45.53;98940.72;4327367;33;32649;-87
2023/08/27 18:22:28;;;;;;;1.77;1.67;;;;;;;31.27;45.44;98946.12;4335868;33;32863;-87
2023/08/27 18:24:57;;;;;;;3.67;3.15;;;;;;;31.14;45.82;98949.75;4331975;33;32135;-88
2023/08/27 18:27:24;;;;;;;2.60;1.65;;;;;;;31.04;45.87;98957.59;4315690;33;33121;-87
2023/08/27 18:29:53;;;;;;;2.62;1.40;;;;;;;30.96;46.18;98946.97;4353867;32;32613;-88
2023/08/27 18:32:21;;;;;;;3.65;2.92;;;;;;;30.92;46.03;98951.19;4334054;32;33653;-88
2023/08/27 18:34:49;;;;;;;2.30;2.10;;;;;;;30.77;46.12;98949.59;4329575;32;34285;-88
2023/08/27 18:37:16;;;;;;;2.58;2.05;;;;;;;30.71;46.27;98946.88;4346686;32;34433;-87
2023/08/27 18:39:44;;;;;;;4.30;3.60;;;;;;;30.69;46.30;98949.81;4337221;32;32512;-87
2023/08/27 18:42:12;;;;;;;1.92;1.83;;;;;;;30.67;46.34;98946.47;4346218;32;33190;-88
2023/08/27 18:44:54;;;;;;;2.25;2.12;;;;;;;30.59;46.75;98942.09;4348811;32;31961;-88
2023/08/27 18:47:25;;;;;;;1.70;1.55;;;;;;;30.59;47.02;98950.25;4298614;33;34716;-87
2023/08/27 18:49:52;;;;;;;4.00;2.60;;;;;;;30.51;47.44;98957.84;4345215;32;34706;-88
2023/08/27 18:52:20;;;;;;;2.92;1.90;;;;;;;30.29;47.99;98958.16;4322871;33;33640;-89
2023/08/27 18:54:48;;;;;;;2.62;1.70;;;;;;;30.16;48.55;98963.63;4332750;32;33397;-89
2023/08/27 18:57:16;;;;;;;4.20;3.10;;;;;;;29.99;48.86;98956.94;4353701;32;33491;-89
2023/08/27 18:59:44;;;;;;;3.65;2.85;;;;;;;29.98;49.12;98958.00;4361222;32;34733;-90
2023/08/27 19:02:12;;;;;;;3.55;3.25;;;;;;;30.02;49.00;98957.34;4354002;32;32824;-90
2023/08/27 19:04:40;;;;;;;8.63;2.53;;;;;;;29.81;49.95;98960.31;4326159;32;31944;-91
2023/08/27 19:07:48;;;;;;;2.95;2.72;;;;;;;29.79;50.14;98949.66;4294665;33;33817;-90
2023/08/27 19:10:17;;;;;;;3.75;2.87;;;;;;;29.84;49.99;98955.28;4291815;32;33367;-89
2023/08/27 19:12:47;;;;;;;3.25;2.75;;;;;;;29.73;50.48;98960.56;4303354;32;33846;-89
2023/08/27 19:15:14;;;;;;;3.28;2.10;;;;;;;29.72;50.21;98959.72;4280060;32;34029;-89
2023/08/27 19:17:42;;;;;;;1.77;1.60;;;;;;;29.66;50.25;98959.69;4290393;33;32730;-89
2023/08/27 19:20:10;;;;;;;2.35;1.87;;;;;;;29.71;50.07;98957.19;4303057;32;33599;-89
2023/08/27 19:22:38;;;;;;;2.20;2.00;;;;;;;29.66;50.26;98960.53;4267693;32;32625;-89
2023/08/27 19:25:07;;;;;;;2.42;1.58;;;;;;;29.67;50.17;98954.03;4258237;33;32528;-90
2023/08/27 19:27:35;;;;;;;2.75;2.20;;;;;;;29.52;50.58;98953.41;4333778;32;33042;-89
2023/08/27 19:30:03;;;;;;;2.45;2.25;;;;;;;29.44;50.65;98951.75;4334326;32;33724;-89